Time;durP1;ratioP1;P1;durP2;ratioP2;P2;SDS_P1;SDS_P2;PMS_P1;PMS_P2;Temp;Humidity;BMP_temperature;BMP_pressure;BME280_temperature;BME280_humidity;BME280_pressure;Samples;Min_cycle;Max_cycle;Signal;HPM_P1;HPM_P2
2021/07/11 00:00:29;;;;;;;12.63;7.57;;;15.60;99.90;;;;;;5129958;27;20070;-78
2021/07/11 00:02:55;;;;;;;12.88;7.40;;;15.70;99.90;;;;;;5105397;27;20466;-78
2021/07/11 00:05:23;;;;;;;11.23;7.32;;;15.60;99.90;;;;;;5118651;27;20077;-76
2021/07/11 00:07:49;;;;;;;10.35;8.02;;;15.60;99.90;;;;;;5124090;27;20027;-77
2021/07/11 00:10:18;;;;;;;8.88;7.60;;;15.60;99.90;;;;;;5107041;28;20059;-77
2021/07/11 00:12:46;;;;;;;8.20;7.28;;;15.60;99.90;;;;;;5119531;27;20102;-77
2021/07/11 00:15:15;;;;;;;10.07;7.38;;;15.50;99.90;;;;;;5107503;27;20102;-77
2021/07/11 00:17:42;;;;;;;10.63;7.63;;;15.40;99.90;;;;;;5129598;27;20490;-76
2021/07/11 00:20:10;;;;;;;12.20;8.10;;;15.40;99.90;;;;;;5122832;27;20042;-77
2021/07/11 00:22:36;;;;;;;11.85;7.70;;;15.30;99.90;;;;;;5105714;27;20081;-78
2021/07/11 00:25:04;;;;;;;8.68;7.28;;;15.30;99.90;;;;;;5132662;27;20530;-78
2021/07/11 00:27:30;;;;;;;11.05;7.28;;;15.30;99.90;;;;;;5123048;27;20039;-78
2021/07/11 00:29:56;;;;;;;9.45;7.45;;;15.30;99.90;;;;;;5105142;27;20084;-80
2021/07/11 00:32:22;;;;;;;9.80;7.55;;;15.30;99.90;;;;;;5114379;27;20032;-79
2021/07/11 00:34:48;;;;;;;10.43;6.70;;;15.30;99.90;;;;;;5121100;27;20042;-79
2021/07/11 00:37:14;;;;;;;9.45;7.07;;;15.30;99.90;;;;;;5105436;27;20047;-78
2021/07/11 00:39:40;;;;;;;9.55;7.47;;;15.30;99.90;;;;;;5124887;27;20119;-78
2021/07/11 00:42:05;;;;;;;11.75;7.22;;;15.40;99.90;;;;;;5121382;27;20047;-77
2021/07/11 00:44:31;;;;;;;8.43;6.97;;;15.40;99.90;;;;;;5102737;27;20082;-77
2021/07/11 00:46:57;;;;;;;10.70;7.57;;;15.40;99.90;;;;;;5127181;27;20032;-77
2021/07/11 00:49:23;;;;;;;8.77;6.90;;;15.50;99.90;;;;;;5131877;27;20567;-77
2021/07/11 00:51:49;;;;;;;10.60;7.45;;;15.30;99.90;;;;;;5111782;27;20035;-77
2021/07/11 00:54:14;;;;;;;9.98;6.97;;;15.30;99.90;;;;;;5104645;28;20036;-78
2021/07/11 00:56:44;;;;;;;10.07;7.30;;;15.20;99.90;;;;;;5124465;27;20027;-77
2021/07/11 00:59:10;;;;;;;10.57;7.82;;;15.20;99.90;;;;;;5121606;27;20035;-78
2021/07/11 01:02:02;;;;;;;10.05;7.45;;;15.10;99.90;;;;;;5129016;27;20072;-77
2021/07/11 01:04:37;;;;;;;9.95;7.85;;;15.10;99.90;;;;;;5119610;27;20027;-77
2021/07/11 01:07:06;;;;;;;10.10;7.85;;;15.10;99.90;;;;;;5114174;27;20065;-77
2021/07/11 01:09:40;;;;;;;10.88;7.93;;;15.10;99.90;;;;;;5114668;27;20501;-77
2021/07/11 01:12:12;;;;;;;9.88;7.50;;;15.10;99.90;;;;;;5109367;27;20126;-77
2021/07/11 01:14:39;;;;;;;13.95;8.00;;;15.10;99.90;;;;;;5121918;27;20059;-77
2021/07/11 01:17:07;;;;;;;11.55;7.47;;;15.10;99.90;;;;;;5119283;27;20534;-77
2021/07/11 01:19:43;;;;;;;10.75;8.18;;;15.10;99.90;;;;;;5112482;27;20030;-78
2021/07/11 01:22:12;;;;;;;11.05;8.13;;;15.10;99.90;;;;;;5119436;27;20031;-77
2021/07/11 01:24:51;;;;;;;14.32;8.02;;;15.10;99.90;;;;;;5112318;28;20103;-77
2021/07/11 01:27:17;;;;;;;10.35;8.57;;;15.10;99.90;;;;;;5123944;28;20031;-77
2021/07/11 01:29:44;;;;;;;10.50;8.15;;;15.10;99.90;;;;;;5102496;28;20303;-77
2021/07/11 01:32:12;;;;;;;11.73;8.23;;;15.00;99.90;;;;;;5122721;27;20027;-77
2021/07/11 01:34:39;;;;;;;13.55;8.93;;;15.00;99.90;;;;;;5101300;28;20062;-77
2021/07/11 01:37:05;;;;;;;14.65;9.88;;;15.00;99.90;;;;;;5122288;27;20058;-77
2021/07/11 01:39:32;;;;;;;13.80;10.20;;;15.00;99.90;;;;;;5129967;27;20035;-77
2021/07/11 01:41:58;;;;;;;15.48;10.93;;;15.00;99.90;;;;;;5116910;27;20074;-77
2021/07/11 01:44:27;;;;;;;16.17;11.23;;;15.10;99.90;;;;;;5125638;27;20035;-78
2021/07/11 01:46:53;;;;;;;15.70;11.93;;;15.10;99.90;;;;;;5105668;27;20035;-77
2021/07/11 01:49:20;;;;;;;14.95;11.50;;;15.10;99.90;;;;;;5109270;27;20037;-78
2021/07/11 01:51:47;;;;;;;15.45;11.35;;;15.10;99.90;;;;;;5108864;27;20035;-77
2021/07/11 01:54:14;;;;;;;14.65;11.00;;;15.10;99.90;;;;;;5107715;27;20483;-78
2021/07/11 01:56:40;;;;;;;17.05;11.40;;;15.10;99.90;;;;;;5136217;27;20051;-78
2021/07/11 01:59:11;;;;;;;16.48;11.70;;;15.10;99.90;;;;;;5111431;27;20059;-77
2021/07/11 02:01:37;;;;;;;18.00;12.13;;;15.00;99.90;;;;;;5124821;27;20031;-77
2021/07/11 02:04:03;;;;;;;16.08;12.40;;;15.00;99.90;;;;;;5104546;27;20035;-78
2021/07/11 02:06:29;;;;;;;17.15;12.25;;;14.90;99.90;;;;;;5118860;27;20528;-78
2021/07/11 02:08:54;;;;;;;14.50;12.75;;;14.90;99.90;;;;;;5121912;27;20080;-78
2021/07/11 02:11:24;;;;;;;16.27;12.95;;;14.90;99.90;;;;;;5111888;27;20479;-78
2021/07/11 02:14:02;;;;;;;17.48;12.85;;;14.80;99.90;;;;;;5112502;27;20032;-78
2021/07/11 02:16:48;;;;;;;16.02;13.43;;;14.90;99.90;;;;;;5106204;27;20027;-78
2021/07/11 02:19:16;;;;;;;18.17;13.27;;;14.90;99.90;;;;;;5122272;27;20032;-77
2021/07/11 02:21:43;;;;;;;15.98;12.68;;;14.90;99.90;;;;;;5127491;27;20080;-77
2021/07/11 02:24:09;;;;;;;16.50;12.60;;;14.90;99.90;;;;;;5134600;27;20756;-77
2021/07/11 02:26:36;;;;;;;15.63;12.73;;;14.90;99.90;;;;;;5103599;27;20035;-78
2021/07/11 02:29:03;;;;;;;17.50;13.13;;;14.90;99.90;;;;;;5131218;27;20059;-78
2021/07/11 02:31:29;;;;;;;18.42;12.85;;;14.90;99.90;;;;;;5128899;27;20027;-78
2021/07/11 02:33:56;;;;;;;18.40;12.80;;;14.80;99.90;;;;;;5135311;27;20063;-78
2021/07/11 02:36:25;;;;;;;17.63;13.07;;;14.60;99.90;;;;;;5107438;27;20898;-78
2021/07/11 02:39:14;;;;;;;16.02;13.10;;;14.70;99.90;;;;;;5142297;27;20042;-78
2021/07/11 02:41:53;;;;;;;19.98;13.15;;;14.60;99.90;;;;;;5119093;27;20498;-78
2021/07/11 02:44:21;;;;;;;14.50;12.68;;;14.50;99.90;;;;;;5134437;27;20110;-77
2021/07/11 02:46:52;;;;;;;15.90;12.90;;;14.50;99.90;;;;;;5111833;27;20494;-78
2021/07/11 02:49:23;;;;;;;16.13;13.05;;;14.50;99.90;;;;;;5122686;27;20084;-77
2021/07/11 02:51:53;;;;;;;16.70;13.80;;;14.50;99.90;;;;;;5123673;27;20430;-77
2021/07/11 02:54:26;;;;;;;17.73;12.95;;;14.50;99.90;;;;;;5100352;27;20032;-78
2021/07/11 02:56:56;;;;;;;22.10;13.38;;;14.50;99.90;;;;;;5101755;27;20043;-77
2021/07/11 02:59:22;;;;;;;17.95;13.52;;;14.50;99.90;;;;;;5111651;27;20031;-77
2021/07/11 03:01:49;;;;;;;18.88;13.13;;;14.50;99.90;;;;;;5123288;27;20092;-77
2021/07/11 03:04:16;;;;;;;20.15;13.25;;;14.60;99.90;;;;;;5112008;27;20035;-77
2021/07/11 03:06:42;;;;;;;15.60;13.00;;;14.60;99.90;;;;;;5111612;28;20086;-77
2021/07/11 03:09:09;;;;;;;16.08;12.07;;;14.70;99.90;;;;;;5109284;27;20496;-78
2021/07/11 03:11:41;;;;;;;16.23;12.20;;;14.70;99.90;;;;;;5134571;27;20039;-77
2021/07/11 03:14:08;;;;;;;18.67;12.15;;;14.70;99.90;;;;;;5118970;27;20058;-77
2021/07/11 03:16:42;;;;;;;16.42;11.98;;;14.70;99.90;;;;;;5119508;27;20135;-77
2021/07/11 03:19:09;;;;;;;13.75;11.20;;;14.60;99.90;;;;;;5117782;27;20051;-78
2021/07/11 03:21:35;;;;;;;13.15;10.90;;;14.60;99.90;;;;;;5126508;27;20050;-77
2021/07/11 03:24:02;;;;;;;13.15;10.82;;;14.60;99.90;;;;;;5094163;27;20044;-78
2021/07/11 03:26:29;;;;;;;16.15;11.50;;;14.60;99.90;;;;;;5117552;27;20059;-78
2021/07/11 03:28:55;;;;;;;15.45;11.57;;;14.60;99.90;;;;;;5103761;27;20118;-78
2021/07/11 03:31:22;;;;;;;15.52;10.38;;;14.60;99.90;;;;;;5132684;27;20035;-78
2021/07/11 03:33:57;;;;;;;15.13;10.90;;;14.60;99.90;;;;;;5088801;28;20039;-78
2021/07/11 03:36:25;;;;;;;12.15;10.55;;;14.70;99.90;;;;;;5100701;27;20035;-78
2021/07/11 03:38:59;;;;;;;16.30;11.32;;;14.70;99.90;;;;;;5081644;27;20092;-78
2021/07/11 03:41:31;;;;;;;16.13;10.77;;;14.70;99.90;;;;;;5122745;27;20039;-77
2021/07/11 03:43:59;;;;;;;13.40;10.05;;;14.70;99.90;;;;;;5102292;27;20035;-78
2021/07/11 03:46:29;;;;;;;12.63;10.05;;;14.70;99.90;;;;;;5129856;27;20509;-77
2021/07/11 03:49:07;;;;;;;14.93;10.75;;;14.70;99.90;;;;;;5115760;27;20035;-78
2021/07/11 03:51:35;;;;;;;14.68;10.95;;;14.70;99.90;;;;;;5111276;27;20091;-78
2021/07/11 03:54:02;;;;;;;12.45;9.48;;;14.70;99.90;;;;;;5108064;27;20126;-78
2021/07/11 03:56:31;;;;;;;12.25;9.77;;;14.80;99.90;;;;;;5119485;27;20031;-78
2021/07/11 03:58:58;;;;;;;12.07;10.15;;;14.80;99.90;;;;;;5114902;27;20057;-78
2021/07/11 04:01:32;;;;;;;12.48;10.07;;;14.90;99.90;;;;;;5112529;27;20051;-78
2021/07/11 04:04:00;;;;;;;14.48;10.25;;;14.80;99.90;;;;;;5118175;27;20050;-78
2021/07/11 04:06:28;;;;;;;14.35;9.05;;;14.90;99.90;;;;;;5120718;27;20106;-78
2021/07/11 04:08:57;;;;;;;12.48;10.18;;;14.90;99.90;;;;;;5116818;27;20031;-78
2021/07/11 04:11:23;;;;;;;10.60;9.23;;;14.90;99.90;;;;;;5114972;27;20070;-78
2021/07/11 04:13:50;;;;;;;15.60;9.43;;;14.90;99.90;;;;;;5096849;27;20085;-78
2021/07/11 04:16:20;;;;;;;12.20;9.77;;;15.00;99.90;;;;;;5135724;27;20039;-78
2021/07/11 04:18:49;;;;;;;12.80;9.98;;;15.10;99.90;;;;;;5126469;27;20063;-78
2021/07/11 04:21:17;;;;;;;15.65;11.15;;;15.10;99.90;;;;;;5112580;27;20434;-78
2021/07/11 04:23:44;;;;;;;13.55;9.90;;;15.20;99.90;;;;;;5123005;27;20104;-78
2021/07/11 04:26:12;;;;;;;14.05;10.35;;;15.20;99.90;;;;;;5119566;27;20032;-78
2021/07/11 04:28:44;;;;;;;12.60;10.25;;;15.30;99.90;;;;;;5105358;27;20046;-78
2021/07/11 04:31:12;;;;;;;15.95;10.10;;;15.40;99.90;;;;;;5115221;27;20091;-78
2021/07/11 04:33:38;;;;;;;14.20;10.73;;;15.50;99.90;;;;;;5116701;27;20046;-78
2021/07/11 04:36:06;;;;;;;13.57;10.75;;;15.60;99.90;;;;;;5121245;27;20035;-78
2021/07/11 04:38:32;;;;;;;16.35;10.75;;;15.80;99.90;;;;;;5106120;27;20529;-78
2021/07/11 04:41:00;;;;;;;16.10;11.27;;;16.20;99.90;;;;;;5101082;27;20054;-78
2021/07/11 04:43:26;;;;;;;16.05;10.95;;;16.60;99.90;;;;;;5103978;27;20539;-78
2021/07/11 04:45:52;;;;;;;12.18;10.27;;;17.00;99.90;;;;;;5114633;27;20063;-78
2021/07/11 04:48:18;;;;;;;13.18;10.55;;;17.20;99.90;;;;;;5095457;27;20154;-78
2021/07/11 04:50:47;;;;;;;14.18;10.57;;;17.40;99.90;;;;;;5104916;28;20039;-78
2021/07/11 04:53:14;;;;;;;13.35;10.80;;;17.30;99.90;;;;;;5124583;27;20039;-78
2021/07/11 04:55:42;;;;;;;18.25;11.18;;;17.30;99.90;;;;;;5106897;27;20182;-78
2021/07/11 04:58:08;;;;;;;15.80;11.13;;;17.30;99.90;;;;;;5118383;27;20031;-78
2021/07/11 05:00:34;;;;;;;15.68;10.90;;;17.30;99.90;;;;;;5112026;27;20040;-78
2021/07/11 05:03:00;;;;;;;16.77;11.25;;;17.40;99.90;;;;;;5124265;27;20534;-78
2021/07/11 05:05:25;;;;;;;14.13;10.95;;;17.30;99.90;;;;;;5103368;27;20089;-78
2021/07/11 05:07:51;;;;;;;13.27;9.90;;;17.10;99.90;;;;;;5116727;27;20394;-78
2021/07/11 05:10:17;;;;;;;14.10;10.90;;;17.10;99.90;;;;;;5111143;27;20051;-78
2021/07/11 05:12:43;;;;;;;16.27;11.15;;;17.00;99.90;;;;;;5127231;27;20538;-78
2021/07/11 05:15:09;;;;;;;13.00;10.30;;;17.00;99.90;;;;;;5108244;27;20035;-78
2021/07/11 05:17:35;;;;;;;13.48;10.27;;;17.10;99.90;;;;;;5123540;27;20106;-78
2021/07/11 05:20:02;;;;;;;14.80;11.07;;;17.10;99.90;;;;;;5118063;27;20039;-78
2021/07/11 05:22:28;;;;;;;13.10;11.15;;;17.10;99.90;;;;;;5129698;27;20091;-80
2021/07/11 05:24:54;;;;;;;15.93;9.30;;;17.00;99.90;;;;;;5107057;28;20039;-77
2021/07/11 05:27:20;;;;;;;19.75;11.13;;;17.00;99.90;;;;;;5107967;28;20122;-78
2021/07/11 05:29:45;;;;;;;12.60;10.10;;;17.00;99.90;;;;;;5122237;28;20031;-78
2021/07/11 05:32:11;;;;;;;18.25;11.15;;;17.10;99.90;;;;;;5106819;27;20043;-78
2021/07/11 05:34:37;;;;;;;14.30;10.70;;;17.10;99.90;;;;;;5110220;28;20363;-78
2021/07/11 05:37:03;;;;;;;16.35;10.80;;;17.10;99.90;;;;;;5126481;27;20067;-78
2021/07/11 05:39:30;;;;;;;13.60;10.48;;;17.10;99.90;;;;;;5109663;28;20542;-78
2021/07/11 05:41:57;;;;;;;16.45;10.82;;;17.10;99.90;;;;;;5124103;28;20049;-78
2021/07/11 05:44:22;;;;;;;13.77;10.80;;;17.20;99.90;;;;;;5110403;28;20027;-78
2021/07/11 05:46:49;;;;;;;13.05;10.23;;;17.10;99.90;;;;;;5130247;27;20062;-78
2021/07/11 05:49:15;;;;;;;11.70;9.93;;;17.20;99.90;;;;;;5107874;28;20398;-78
2021/07/11 05:51:41;;;;;;;14.25;10.20;;;17.30;99.90;;;;;;5110707;27;20042;-78
2021/07/11 05:54:06;;;;;;;13.07;9.88;;;17.30;99.90;;;;;;5106162;28;20042;-77
2021/07/11 05:56:32;;;;;;;14.30;9.73;;;17.30;99.90;;;;;;5117654;27;20137;-78
2021/07/11 05:58:58;;;;;;;12.02;9.63;;;17.40;99.90;;;;;;5129618;27;20391;-78
2021/07/11 06:01:24;;;;;;;14.85;9.93;;;17.50;99.90;;;;;;5125174;27;20110;-78
2021/07/11 06:03:49;;;;;;;12.27;8.90;;;17.60;99.90;;;;;;5131449;27;20046;-78
2021/07/11 06:06:16;;;;;;;12.30;8.85;;;17.80;99.90;;;;;;5104633;28;20078;-78
2021/07/11 06:08:42;;;;;;;12.85;8.48;;;17.80;99.90;;;;;;5130897;27;20088;-78
2021/07/11 06:11:08;;;;;;;11.00;8.63;;;17.90;99.90;;;;;;5120695;27;20039;-77
2021/07/11 06:13:33;;;;;;;10.23;8.48;;;17.90;99.90;;;;;;5121641;27;20096;-80
2021/07/11 06:15:59;;;;;;;11.85;8.30;;;17.80;99.90;;;;;;5112697;28;20196;-78
2021/07/11 06:18:25;;;;;;;12.25;8.23;;;17.90;99.90;;;;;;5105651;28;20039;-79
2021/07/11 06:20:52;;;;;;;13.95;8.32;;;17.90;99.90;;;;;;5095387;27;20062;-79
2021/07/11 06:23:18;;;;;;;9.93;7.97;;;18.00;99.90;;;;;;5123900;27;20051;-79
2021/07/11 06:25:43;;;;;;;10.48;7.97;;;18.00;99.90;;;;;;5131425;27;20055;-79
2021/07/11 06:28:09;;;;;;;10.65;7.72;;;18.10;99.90;;;;;;5122205;27;20047;-78
2021/07/11 06:30:35;;;;;;;9.50;7.78;;;18.20;99.90;;;;;;5121632;27;20027;-78
2021/07/11 06:33:01;;;;;;;10.48;8.32;;;18.20;99.90;;;;;;5143642;27;20039;-79
2021/07/11 06:35:26;;;;;;;11.65;7.68;;;18.30;99.90;;;;;;5102454;28;20058;-79
2021/07/11 06:37:52;;;;;;;11.55;7.72;;;18.30;99.90;;;;;;5133135;27;20152;-78
2021/07/11 06:40:21;;;;;;;11.13;8.15;;;18.40;99.90;;;;;;5131298;27;20028;-77
2021/07/11 06:42:48;;;;;;;9.30;7.53;;;18.40;99.90;;;;;;5106068;28;20058;-78
2021/07/11 06:45:15;;;;;;;9.75;6.90;;;18.40;99.90;;;;;;5124639;27;20106;-77
2021/07/11 06:47:41;;;;;;;8.07;7.03;;;18.50;99.90;;;;;;5102203;28;20110;-78
2021/07/11 06:50:11;;;;;;;11.90;7.60;;;18.50;99.90;;;;;;5082618;27;20148;-78
2021/07/11 06:52:39;;;;;;;10.77;7.78;;;18.60;99.90;;;;;;5095719;27;20043;-76
2021/07/11 06:55:10;;;;;;;7.95;7.10;;;18.60;99.90;;;;;;5105916;27;20059;-78
2021/07/11 06:57:37;;;;;;;12.35;7.45;;;18.70;99.90;;;;;;5105684;27;20051;-75
2021/07/11 07:00:09;;;;;;;7.93;6.90;;;18.80;99.90;;;;;;5110523;27;20035;-74
2021/07/11 07:02:35;;;;;;;9.68;6.75;;;18.80;99.90;;;;;;5123859;27;20032;-77
2021/07/11 07:05:00;;;;;;;10.95;7.32;;;18.90;99.90;;;;;;5130079;27;20027;-77
2021/07/11 07:07:26;;;;;;;11.70;8.05;;;18.90;99.90;;;;;;5127624;27;20142;-78
2021/07/11 07:09:52;;;;;;;9.82;7.57;;;19.00;99.90;;;;;;5113356;27;20048;-80
2021/07/11 07:12:18;;;;;;;9.98;7.45;;;19.00;99.90;;;;;;5110581;27;20051;-78
2021/07/11 07:14:43;;;;;;;8.82;7.28;;;19.10;99.90;;;;;;5114974;27;20040;-77
2021/07/11 07:17:09;;;;;;;7.80;7.00;;;19.10;99.90;;;;;;5124240;27;20462;-77
2021/07/11 07:19:35;;;;;;;10.82;7.65;;;19.20;99.90;;;;;;5112852;27;20469;-78
2021/07/11 07:22:01;;;;;;;8.32;7.00;;;19.30;99.90;;;;;;5099620;27;20039;-79
2021/07/11 07:24:27;;;;;;;8.85;6.68;;;19.40;99.90;;;;;;5108556;27;20055;-79
2021/07/11 07:26:52;;;;;;;8.40;6.50;;;19.40;99.90;;;;;;5124602;27;20057;-77
2021/07/11 07:29:19;;;;;;;8.52;6.60;;;19.50;99.90;;;;;;5132730;27;20039;-78
2021/07/11 07:31:47;;;;;;;10.32;6.82;;;19.60;99.90;;;;;;5110482;27;20047;-77
2021/07/11 07:34:13;;;;;;;10.23;6.93;;;19.70;99.90;;;;;;5122807;27;20035;-77
2021/07/11 07:36:39;;;;;;;9.02;6.35;;;19.80;99.90;;;;;;5131612;27;20493;-78
2021/07/11 07:39:05;;;;;;;10.45;6.25;;;19.90;99.90;;;;;;5134598;27;20027;-77
2021/07/11 07:41:31;;;;;;;9.75;6.85;;;20.00;99.90;;;;;;5099706;27;20582;-79
2021/07/11 07:43:57;;;;;;;9.15;6.72;;;20.00;99.90;;;;;;5108558;27;20046;-81
2021/07/11 07:46:23;;;;;;;9.05;6.85;;;20.10;99.90;;;;;;5106276;27;20031;-79
2021/07/11 07:48:49;;;;;;;7.55;6.45;;;20.20;99.90;;;;;;5118385;27;20038;-79
2021/07/11 07:51:17;;;;;;;8.23;6.38;;;20.30;99.90;;;;;;5105667;27;20027;-84
2021/07/11 07:53:43;;;;;;;8.38;6.72;;;20.40;99.90;;;;;;5104594;27;20039;-82
2021/07/11 07:56:09;;;;;;;9.55;7.10;;;20.50;99.90;;;;;;5107722;27;20432;-80
2021/07/11 07:58:35;;;;;;;8.95;6.55;;;20.50;99.90;;;;;;5126883;27;20397;-83
2021/07/11 08:01:01;;;;;;;8.57;6.55;;;20.60;99.90;;;;;;5120890;27;20057;-83
2021/07/11 08:03:26;;;;;;;8.68;7.07;;;20.70;99.90;;;;;;5124713;27;20153;-79
2021/07/11 08:05:52;;;;;;;10.70;7.05;;;20.70;99.90;;;;;;5082850;27;20491;-82
2021/07/11 08:08:18;;;;;;;9.70;7.15;;;20.70;99.90;;;;;;5107136;27;20110;-86
2021/07/11 08:10:44;;;;;;;9.85;6.80;;;20.70;99.90;;;;;;5121070;27;20118;-80
2021/07/11 08:13:09;;;;;;;9.05;6.90;;;20.70;99.90;;;;;;5101610;27;20474;-81
2021/07/11 08:15:35;;;;;;;8.82;6.85;;;20.70;99.90;;;;;;5127902;27;20137;-79
2021/07/11 08:18:01;;;;;;;9.75;6.40;;;20.80;99.90;;;;;;5121085;27;20137;-81
2021/07/11 08:20:27;;;;;;;11.27;7.28;;;20.90;99.90;;;;;;5120888;27;20130;-79
2021/07/11 08:22:54;;;;;;;7.93;6.90;;;20.90;99.90;;;;;;5120226;27;20101;-80
2021/07/11 08:25:20;;;;;;;11.23;7.10;;;20.90;99.90;;;;;;5097681;27;20043;-78
2021/07/11 08:27:48;;;;;;;9.20;6.85;;;20.90;99.90;;;;;;5096571;27;20113;-76
2021/07/11 08:30:15;;;;;;;9.60;7.18;;;21.00;99.90;;;;;;5120072;27;20439;-79
2021/07/11 08:32:41;;;;;;;10.07;7.03;;;21.10;99.90;;;;;;5133887;27;20114;-79
2021/07/11 08:35:08;;;;;;;7.20;6.45;;;21.30;99.90;;;;;;5134394;27;20126;-79
2021/07/11 08:37:35;;;;;;;7.70;6.50;;;21.50;99.90;;;;;;5134581;27;20035;-79
2021/07/11 08:40:07;;;;;;;9.15;6.45;;;21.50;99.90;;;;;;5134538;27;20096;-78
2021/07/11 08:42:37;;;;;;;9.93;6.72;;;21.60;99.90;;;;;;5094359;27;20047;-81
2021/07/11 08:45:05;;;;;;;10.00;6.45;;;21.60;99.90;;;;;;5123415;27;20050;-78
2021/07/11 08:47:31;;;;;;;9.68;6.45;;;21.70;99.90;;;;;;5106697;27;20156;-78
2021/07/11 08:49:56;;;;;;;8.27;6.28;;;21.90;99.90;;;;;;5099737;27;20111;-80
2021/07/11 08:52:22;;;;;;;8.90;6.90;;;21.90;99.90;;;;;;5123870;27;20084;-78
2021/07/11 08:54:48;;;;;;;10.68;6.60;;;22.20;99.90;;;;;;5121776;27;20061;-77
2021/07/11 08:57:14;;;;;;;9.95;7.18;;;22.40;99.90;;;;;;5125641;27;20038;-77
2021/07/11 08:59:41;;;;;;;10.05;6.90;;;22.60;99.90;;;;;;5092828;27;20058;-76
2021/07/11 09:02:08;;;;;;;12.50;7.40;;;22.70;99.90;;;;;;5121742;27;20176;-77
2021/07/11 09:04:45;;;;;;;10.52;6.90;;;22.90;99.90;;;;;;5109440;27;20028;-76
2021/07/11 09:07:21;;;;;;;10.25;6.57;;;22.90;99.90;;;;;;5105673;27;20066;-78
2021/07/11 09:09:56;;;;;;;12.77;7.53;;;23.00;99.90;;;;;;5127596;27;20061;-77
2021/07/11 09:12:22;;;;;;;;;;;23.00;99.90;;;;;;5125445;27;20088;-78
2021/07/11 09:14:48;;;;;;;11.38;8.35;;;23.20;99.90;;;;;;5126897;27;20378;-80
2021/07/11 09:17:14;;;;;;;12.25;7.32;;;23.30;99.90;;;;;;5125476;27;20409;-82
2021/07/11 09:19:48;;;;;;;9.57;7.25;;;23.50;99.90;;;;;;5090718;27;20062;-80
2021/07/11 09:22:14;;;;;;;10.10;7.70;;;23.50;99.90;;;;;;5092850;28;20063;-79
2021/07/11 09:24:48;;;;;;;9.10;7.57;;;23.30;99.90;;;;;;5120087;27;20130;-79
2021/07/11 09:27:20;;;;;;;9.38;7.78;;;23.30;99.90;;;;;;5131686;28;20122;-79
2021/07/11 09:29:47;;;;;;;9.93;7.43;;;23.40;99.90;;;;;;5132391;28;20386;-80
2021/07/11 09:32:32;;;;;;;8.20;6.70;;;23.40;99.90;;;;;;5109160;28;20040;-79
2021/07/11 09:35:27;;;;;;;9.90;7.68;;;23.60;99.90;;;;;;5115682;27;20031;-78
2021/07/11 09:37:58;;;;;;;8.88;7.50;;;23.60;99.90;;;;;;5024846;28;20037;-78
2021/07/11 09:40:26;;;;;;;11.40;6.80;;;23.60;99.90;;;;;;5024374;28;20037;-78
2021/07/11 09:42:55;;;;;;;10.57;7.05;;;23.70;99.90;;;;;;5042990;28;20057;-79
2021/07/11 09:45:22;;;;;;;10.73;6.85;;;23.80;99.90;;;;;;5013173;28;20052;-79
2021/07/11 09:47:51;;;;;;;10.30;7.47;;;23.70;99.90;;;;;;5029784;28;20057;-79
2021/07/11 09:50:21;;;;;;;8.43;6.82;;;23.80;99.90;;;;;;5030587;28;20041;-80
2021/07/11 09:52:50;;;;;;;15.30;7.70;;;23.80;99.90;;;;;;5013594;28;20037;-79
2021/07/11 09:55:23;;;;;;;8.75;6.22;;;23.80;99.90;;;;;;5013680;28;20107;-80
2021/07/11 09:57:54;;;;;;;7.53;6.22;;;24.00;99.90;;;;;;5047981;28;20040;-80
2021/07/11 10:00:23;;;;;;;7.05;6.25;;;24.20;99.90;;;;;;5029510;28;20037;-79
2021/07/11 10:02:52;;;;;;;7.55;6.63;;;24.50;99.90;;;;;;5044571;28;20176;-80
2021/07/11 10:05:19;;;;;;;7.65;6.05;;;24.40;99.90;;;;;;5028767;28;20041;-80
2021/07/11 10:07:45;;;;;;;6.50;5.43;;;24.40;99.90;;;;;;5017270;28;20057;-80
2021/07/11 10:10:14;;;;;;;7.88;6.15;;;24.50;99.90;;;;;;5033555;28;20492;-79
2021/07/11 10:12:41;;;;;;;6.85;6.00;;;24.70;99.90;;;;;;5040285;28;20564;-79
2021/07/11 10:15:12;;;;;;;9.80;5.63;;;24.60;99.90;;;;;;5110161;27;20125;-79
2021/07/11 10:18:04;;;;;;;10.55;6.43;;;24.70;99.90;;;;;;5101232;27;20050;-80
2021/07/11 10:20:43;;;;;;;9.88;5.38;;;24.70;99.90;;;;;;5115580;27;20123;-79
2021/07/11 10:23:09;;;;;;;7.40;5.40;;;24.80;99.90;;;;;;5135623;27;20142;-79
2021/07/11 10:25:36;;;;;;;8.88;6.28;;;25.40;99.90;;;;;;5137075;27;20039;-80
2021/07/11 10:28:11;;;;;;;10.18;6.10;;;25.70;99.90;;;;;;5118365;27;20118;-80
2021/07/11 10:30:42;;;;;;;6.88;5.70;;;25.80;99.90;;;;;;5136671;27;20363;-79
2021/07/11 10:33:10;;;;;;;8.00;6.38;;;25.60;99.90;;;;;;5117570;27;20118;-79
2021/07/11 10:35:51;;;;;;;12.68;5.60;;;25.40;99.90;;;;;;5129761;27;20261;-80
2021/07/11 10:38:36;;;;;;;10.32;5.85;;;25.30;99.90;;;;;;5117899;27;20043;-80
2021/07/11 10:41:16;;;;;;;8.85;5.78;;;25.10;99.90;;;;;;5136411;27;20400;-79
2021/07/11 10:43:45;;;;;;;6.32;5.00;;;25.10;99.90;;;;;;5116926;27;20482;-80
2021/07/11 10:46:13;;;;;;;7.13;5.15;;;25.20;99.90;;;;;;5132004;27;20048;-79
2021/07/11 10:48:38;;;;;;;12.77;5.35;;;25.30;99.90;;;;;;5100027;28;20093;-79
2021/07/11 10:51:05;;;;;;;7.68;5.50;;;25.30;99.90;;;;;;5109024;27;20824;-79
2021/07/11 10:53:36;;;;;;;8.50;5.85;;;25.20;99.90;;;;;;5142487;27;20078;-80
2021/07/11 10:56:04;;;;;;;7.53;5.35;;;25.30;99.90;;;;;;5113930;27;20035;-78
2021/07/11 10:58:46;;;;;;;7.80;5.28;;;25.50;99.90;;;;;;5115704;28;20046;-80
2021/07/11 11:01:17;;;;;;;9.02;6.13;;;25.50;99.90;;;;;;5097475;28;20035;-80
2021/07/11 11:03:48;;;;;;;7.22;5.57;;;25.30;99.90;;;;;;5112930;27;20079;-79
2021/07/11 11:06:15;;;;;;;6.95;5.60;;;25.30;99.90;;;;;;5152779;27;20115;-80
2021/07/11 11:08:45;;;;;;;7.03;5.50;;;25.20;99.90;;;;;;5117392;27;20503;-80
2021/07/11 11:11:10;;;;;;;10.05;5.80;;;25.20;99.90;;;;;;5117479;27;20039;-80
2021/07/11 11:13:36;;;;;;;7.25;5.90;;;25.00;99.90;;;;;;5099969;28;20580;-80
2021/07/11 11:16:17;;;;;;;8.93;5.90;;;25.10;99.90;;;;;;5108149;27;20493;-80
2021/07/11 11:18:48;;;;;;;7.90;5.63;;;24.90;99.90;;;;;;5135839;27;20039;-78
2021/07/11 11:21:16;;;;;;;10.93;5.30;;;24.80;99.90;;;;;;5117159;27;20043;-81
2021/07/11 11:23:53;;;;;;;8.70;5.90;;;25.00;99.90;;;;;;5114638;27;20179;-79
2021/07/11 11:26:26;;;;;;;8.48;5.47;;;25.00;99.90;;;;;;5128015;27;20431;-80
2021/07/11 11:28:55;;;;;;;6.30;5.38;;;25.10;99.90;;;;;;5138007;27;20031;-79
2021/07/11 11:31:27;;;;;;;7.07;5.72;;;25.10;99.90;;;;;;5155713;27;20031;-80
2021/07/11 11:33:59;;;;;;;11.38;5.72;;;24.90;99.90;;;;;;5142564;27;20114;-80
2021/07/11 11:36:36;;;;;;;8.77;5.88;;;24.80;99.90;;;;;;5104997;27;20496;-79
2021/07/11 11:39:24;;;;;;;9.65;5.80;;;24.60;99.90;;;;;;5127944;27;20072;-80
2021/07/11 11:41:50;;;;;;;8.20;6.10;;;24.50;99.90;;;;;;5099884;27;20046;-79
2021/07/11 11:44:22;;;;;;;6.80;6.10;;;24.40;99.90;;;;;;5112718;28;20093;-80
2021/07/11 11:46:50;;;;;;;9.20;6.22;;;24.40;99.90;;;;;;5116075;27;20479;-80
2021/07/11 11:49:22;;;;;;;8.25;5.40;;;24.40;99.90;;;;;;5099845;27;20039;-80
2021/07/11 11:51:51;;;;;;;8.02;6.03;;;24.40;99.90;;;;;;5116489;27;20087;-79
2021/07/11 11:54:41;;;;;;;7.97;6.28;;;24.20;99.90;;;;;;5116543;27;20043;-79
2021/07/11 11:57:08;;;;;;;9.93;6.38;;;24.10;99.90;;;;;;5125849;27;20035;-79
2021/07/11 11:59:36;;;;;;;8.73;6.72;;;24.00;99.90;;;;;;5123327;27;20050;-79
2021/07/11 12:02:04;;;;;;;9.45;6.68;;;24.00;99.90;;;;;;5115996;27;20032;-80
2021/07/11 12:04:31;;;;;;;12.38;6.22;;;23.80;99.90;;;;;;5109396;27;20423;-80
2021/07/11 12:07:00;;;;;;;9.32;6.22;;;23.70;99.90;;;;;;5123106;27;20050;-83
2021/07/11 12:09:32;;;;;;;10.27;6.50;;;23.40;99.90;;;;;;5124168;27;20036;-84
2021/07/11 12:12:06;;;;;;;7.97;6.15;;;23.40;99.90;;;;;;5126173;27;20092;-85
2021/07/11 12:14:33;;;;;;;;;;;23.40;99.90;;;;;;5107952;27;20107;-84
2021/07/11 12:17:04;;;;;;;9.27;5.97;;;23.20;99.90;;;;;;5120091;27;19948;-85
2021/07/11 12:19:41;;;;;;;7.85;6.32;;;23.00;99.90;;;;;;5124122;27;20031;-84
2021/07/11 12:22:07;;;;;;;8.48;5.88;;;23.00;99.90;;;;;;5109754;27;20967;-88
2021/07/11 12:24:32;;;;;;;10.68;7.25;;;22.90;99.90;;;;;;5122993;27;20044;-83
2021/07/11 12:27:03;;;;;;;8.50;5.97;;;22.80;99.90;;;;;;5109765;27;20027;-83
2021/07/11 12:29:34;;;;;;;9.23;6.40;;;22.80;99.90;;;;;;5103877;27;20040;-89
2021/07/11 12:32:03;;;;;;;14.00;6.65;;;22.80;99.90;;;;;;5111746;27;20076;-86
2021/07/11 12:34:29;;;;;;;10.45;7.13;;;22.80;99.90;;;;;;5105353;27;20489;-83
2021/07/11 12:36:57;;;;;;;9.15;6.75;;;22.70;99.90;;;;;;5102413;27;20058;-85
2021/07/11 12:39:24;;;;;;;7.78;6.40;;;22.50;99.90;;;;;;5105001;27;20031;-85
2021/07/11 12:41:52;;;;;;;8.68;6.72;;;22.50;99.90;;;;;;5114089;27;20066;-83
2021/07/11 12:44:19;;;;;;;8.30;6.25;;;22.40;99.90;;;;;;5099991;27;20035;-82